Ora Direzione Vento Velocita' Vento Media Vento Raffica Max. Temperatura Wind Chill Pioggia Pressione
20:22:13.0158 °(SSE)3.5 Kts5.4 Kts15.6 Kts29.1 °C29.1 °C0.0 mm1008.5 Hpa
20:01:47.0158 °(SSE)5.4 Kts6.0 Kts15.6 Kts29.2 °C29.2 °C0.0 mm1008.5 Hpa
19:41:43.0135 °(SE)5.8 Kts7.2 Kts15.6 Kts29.3 °C29.3 °C0.0 mm1008.4 Hpa
19:21:18.0135 °(SE)9.5 Kts8.0 Kts15.6 Kts29.3 °C29.3 °C0.0 mm1008.4 Hpa
19:01:00.0135 °(SE)11.1 Kts10.3 Kts15.6 Kts29.3 °C29.3 °C0.0 mm1008.4 Hpa
18:40:33.0135 °(SE)12.2 Kts12.6 Kts15.6 Kts29.3 °C29.3 °C0.0 mm1008.7 Hpa
18:21:34.0135 °(SE)14.6 Kts13.8 Kts15.6 Kts29.4 °C29.4 °C0.0 mm1008.8 Hpa
18:00:52.0135 °(SE)11.7 Kts11.9 Kts15.6 Kts29.4 °C29.4 °C0.0 mm1008.9 Hpa
17:42:12.0135 °(SE)10.9 Kts11.7 Kts15.6 Kts29.5 °C29.5 °C0.0 mm1009.0 Hpa
17:22:03.0135 °(SE)12.4 Kts11.7 Kts15.6 Kts29.6 °C29.6 °C0.0 mm1009.1 Hpa
17:01:50.0135 °(SE)12.4 Kts12.2 Kts15.6 Kts29.6 °C29.6 °C0.0 mm1009.1 Hpa
16:41:36.0135 °(SE)12.4 Kts11.9 Kts15.6 Kts29.6 °C29.6 °C0.0 mm1009.3 Hpa
16:21:21.0135 °(SE)8.2 Kts11.3 Kts14.4 Kts29.7 °C29.7 °C0.0 mm1009.5 Hpa
16:00:42.0135 °(SE)10.5 Kts11.1 Kts14.4 Kts29.8 °C29.8 °C0.0 mm1009.6 Hpa
15:42:09.0135 °(SE)10.1 Kts11.1 Kts14.4 Kts29.9 °C29.9 °C0.0 mm1009.7 Hpa
15:21:42.0135 °(SE)11.9 Kts11.7 Kts14.4 Kts30.0 °C30.0 °C0.0 mm1009.8 Hpa
15:01:17.0135 °(SE)9.5 Kts10.5 Kts14.4 Kts29.9 °C29.9 °C0.0 mm1010.0 Hpa
14:41:03.0135 °(SE)10.9 Kts9.9 Kts14.4 Kts30.0 °C30.0 °C0.0 mm1010.1 Hpa
14:20:43.0135 °(SE)9.7 Kts8.6 Kts14.4 Kts30.1 °C30.1 °C0.0 mm1010.4 Hpa
14:01:48.0135 °(SE)10.9 Kts10.3 Kts12.1 Kts30.1 °C30.1 °C0.0 mm1010.4 Hpa